sensor_id;sensor_type;location;lat;lon;timestamp;temperature;humidity
76613;DHT22;65507;48.454;-2.058;2023-04-15T00:01:22;9.90;78.70
76613;DHT22;65507;48.454;-2.058;2023-04-15T00:03:51;9.90;78.60
76613;DHT22;65507;48.454;-2.058;2023-04-15T00:06:20;9.90;78.50
76613;DHT22;65507;48.454;-2.058;2023-04-15T00:08:47;9.80;78.40
76613;DHT22;65507;48.454;-2.058;2023-04-15T00:11:13;9.80;78.40
76613;DHT22;65507;48.454;-2.058;2023-04-15T00:13:40;9.70;78.40
76613;DHT22;65507;48.454;-2.058;2023-04-15T00:16:07;9.70;78.40
76613;DHT22;65507;48.454;-2.058;2023-04-15T00:18:33;9.70;78.20
76613;DHT22;65507;48.454;-2.058;2023-04-15T00:20:59;9.60;78.20
76613;DHT22;65507;48.454;-2.058;2023-04-15T00:23:25;9.60;78.20
76613;DHT22;65507;48.454;-2.058;2023-04-15T00:25:51;9.50;78.00
76613;DHT22;65507;48.454;-2.058;2023-04-15T00:28:17;9.50;77.80
76613;DHT22;65507;48.454;-2.058;2023-04-15T00:30:43;9.50;77.70
76613;DHT22;65507;48.454;-2.058;2023-04-15T00:33:09;9.50;77.50
76613;DHT22;65507;48.454;-2.058;2023-04-15T00:35:36;9.50;77.50
76613;DHT22;65507;48.454;-2.058;2023-04-15T00:38:02;9.50;77.30
76613;DHT22;65507;48.454;-2.058;2023-04-15T00:40:29;9.50;77.20
76613;DHT22;65507;48.454;-2.058;2023-04-15T00:42:54;9.50;77.00
76613;DHT22;65507;48.454;-2.058;2023-04-15T00:45:20;9.50;76.80
76613;DHT22;65507;48.454;-2.058;2023-04-15T00:47:46;9.50;76.70
76613;DHT22;65507;48.454;-2.058;2023-04-15T00:50:12;9.50;76.40
76613;DHT22;65507;48.454;-2.058;2023-04-15T00:52:38;9.50;76.40
76613;DHT22;65507;48.454;-2.058;2023-04-15T00:55:05;9.40;76.10
76613;DHT22;65507;48.454;-2.058;2023-04-15T00:57:31;9.50;75.90
76613;DHT22;65507;48.454;-2.058;2023-04-15T00:59:57;9.50;75.80
76613;DHT22;65507;48.454;-2.058;2023-04-15T01:02:23;9.50;75.70
76613;DHT22;65507;48.454;-2.058;2023-04-15T01:04:49;9.50;75.60
76613;DHT22;65507;48.454;-2.058;2023-04-15T01:07:15;9.40;75.60
76613;DHT22;65507;48.454;-2.058;2023-04-15T01:09:42;9.40;75.70
76613;DHT22;65507;48.454;-2.058;2023-04-15T01:12:11;9.40;75.80
76613;DHT22;65507;48.454;-2.058;2023-04-15T01:14:41;9.40;75.90
76613;DHT22;65507;48.454;-2.058;2023-04-15T01:17:07;9.40;75.80
76613;DHT22;65507;48.454;-2.058;2023-04-15T01:19:35;9.30;75.80
76613;DHT22;65507;48.454;-2.058;2023-04-15T01:22:02;9.30;75.80
76613;DHT22;65507;48.454;-2.058;2023-04-15T01:24:31;9.30;75.80
76613;DHT22;65507;48.454;-2.058;2023-04-15T01:27:00;9.30;75.80
76613;DHT22;65507;48.454;-2.058;2023-04-15T01:29:26;9.30;75.80
76613;DHT22;65507;48.454;-2.058;2023-04-15T01:31:53;9.30;76.90
76613;DHT22;65507;48.454;-2.058;2023-04-15T01:34:19;9.20;75.90
76613;DHT22;65507;48.454;-2.058;2023-04-15T01:36:45;9.20;76.00
76613;DHT22;65507;48.454;-2.058;2023-04-15T01:39:11;9.20;76.00
76613;DHT22;65507;48.454;-2.058;2023-04-15T01:41:37;9.20;76.00
76613;DHT22;65507;48.454;-2.058;2023-04-15T01:44:03;9.20;77.00
76613;DHT22;65507;48.454;-2.058;2023-04-15T01:46:29;9.20;76.10
76613;DHT22;65507;48.454;-2.058;2023-04-15T01:48:55;9.20;76.10
76613;DHT22;65507;48.454;-2.058;2023-04-15T01:51:21;9.20;76.00
76613;DHT22;65507;48.454;-2.058;2023-04-15T01:53:46;9.20;76.00
76613;DHT22;65507;48.454;-2.058;2023-04-15T01:56:12;9.20;76.00
76613;DHT22;65507;48.454;-2.058;2023-04-15T01:58:38;9.20;76.00
76613;DHT22;65507;48.454;-2.058;2023-04-15T02:01:04;9.20;76.00
76613;DHT22;65507;48.454;-2.058;2023-04-15T02:03:31;9.20;76.00
76613;DHT22;65507;48.454;-2.058;2023-04-15T02:05:57;9.20;76.10
76613;DHT22;65507;48.454;-2.058;2023-04-15T02:08:23;9.20;76.00
76613;DHT22;65507;48.454;-2.058;2023-04-15T02:10:48;9.20;75.90
76613;DHT22;65507;48.454;-2.058;2023-04-15T02:13:14;9.20;75.90
76613;DHT22;65507;48.454;-2.058;2023-04-15T02:15:46;9.20;75.90
76613;DHT22;65507;48.454;-2.058;2023-04-15T02:18:12;9.20;76.00
76613;DHT22;65507;48.454;-2.058;2023-04-15T02:20:37;9.20;76.00
76613;DHT22;65507;48.454;-2.058;2023-04-15T02:23:03;9.20;76.00
76613;DHT22;65507;48.454;-2.058;2023-04-15T02:25:31;9.20;76.00
76613;DHT22;65507;48.454;-2.058;2023-04-15T02:27:57;9.20;75.90
76613;DHT22;65507;48.454;-2.058;2023-04-15T02:30:23;9.20;75.80
76613;DHT22;65507;48.454;-2.058;2023-04-15T02:32:50;9.20;75.80
76613;DHT22;65507;48.454;-2.058;2023-04-15T02:35:15;9.20;75.90
76613;DHT22;65507;48.454;-2.058;2023-04-15T02:37:44;9.20;75.90
76613;DHT22;65507;48.454;-2.058;2023-04-15T02:40:11;9.20;76.00
76613;DHT22;65507;48.454;-2.058;2023-04-15T02:42:41;9.20;75.90
76613;DHT22;65507;48.454;-2.058;2023-04-15T02:45:09;9.20;76.00
76613;DHT22;65507;48.454;-2.058;2023-04-15T02:47:36;9.20;76.00
76613;DHT22;65507;48.454;-2.058;2023-04-15T02:50:06;9.20;76.10
76613;DHT22;65507;48.454;-2.058;2023-04-15T02:52:32;9.20;76.10
76613;DHT22;65507;48.454;-2.058;2023-04-15T02:54:57;9.20;76.10
76613;DHT22;65507;48.454;-2.058;2023-04-15T02:57:27;9.20;76.20
76613;DHT22;65507;48.454;-2.058;2023-04-15T02:59:53;9.20;76.20
76613;DHT22;65507;48.454;-2.058;2023-04-15T03:02:19;9.20;76.20
76613;DHT22;65507;48.454;-2.058;2023-04-15T03:04:45;9.20;76.20
76613;DHT22;65507;48.454;-2.058;2023-04-15T03:07:11;9.30;76.30
76613;DHT22;65507;48.454;-2.058;2023-04-15T03:09:36;9.30;76.20
76613;DHT22;65507;48.454;-2.058;2023-04-15T03:12:04;9.30;76.30
76613;DHT22;65507;48.454;-2.058;2023-04-15T03:14:30;9.30;76.40
76613;DHT22;65507;48.454;-2.058;2023-04-15T03:16:56;9.30;76.40
76613;DHT22;65507;48.454;-2.058;2023-04-15T03:19:23;9.30;76.40
76613;DHT22;65507;48.454;-2.058;2023-04-15T03:21:49;9.30;76.50
76613;DHT22;65507;48.454;-2.058;2023-04-15T03:24:15;9.30;76.60
76613;DHT22;65507;48.454;-2.058;2023-04-15T03:26:41;9.30;76.70
76613;DHT22;65507;48.454;-2.058;2023-04-15T03:29:06;9.30;76.80
76613;DHT22;65507;48.454;-2.058;2023-04-15T03:31:32;9.30;76.90
76613;DHT22;65507;48.454;-2.058;2023-04-15T03:33:57;9.30;77.00
76613;DHT22;65507;48.454;-2.058;2023-04-15T03:36:23;9.20;77.00
76613;DHT22;65507;48.454;-2.058;2023-04-15T03:38:49;9.20;77.10
76613;DHT22;65507;48.454;-2.058;2023-04-15T03:41:15;9.20;77.30
76613;DHT22;65507;48.454;-2.058;2023-04-15T03:43:40;9.20;77.40
76613;DHT22;65507;48.454;-2.058;2023-04-15T03:46:06;9.20;77.50
76613;DHT22;65507;48.454;-2.058;2023-04-15T03:48:31;9.20;77.50
76613;DHT22;65507;48.454;-2.058;2023-04-15T03:50:57;9.30;77.60
76613;DHT22;65507;48.454;-2.058;2023-04-15T03:53:23;9.30;77.70
76613;DHT22;65507;48.454;-2.058;2023-04-15T03:55:48;9.30;77.80
76613;DHT22;65507;48.454;-2.058;2023-04-15T03:58:14;9.30;77.80
76613;DHT22;65507;48.454;-2.058;2023-04-15T04:00:40;9.20;78.00
76613;DHT22;65507;48.454;-2.058;2023-04-15T04:03:06;9.20;78.00
76613;DHT22;65507;48.454;-2.058;2023-04-15T04:05:32;9.20;78.00
76613;DHT22;65507;48.454;-2.058;2023-04-15T04:07:58;9.70;78.30
76613;DHT22;65507;48.454;-2.058;2023-04-15T04:10:24;9.30;78.20
76613;DHT22;65507;48.454;-2.058;2023-04-15T04:12:50;9.30;78.30
76613;DHT22;65507;48.454;-2.058;2023-04-15T04:15:18;9.30;78.40
76613;DHT22;65507;48.454;-2.058;2023-04-15T04:17:44;9.30;78.40
76613;DHT22;65507;48.454;-2.058;2023-04-15T04:20:10;9.30;78.40
76613;DHT22;65507;48.454;-2.058;2023-04-15T04:22:39;9.30;78.50
76613;DHT22;65507;48.454;-2.058;2023-04-15T04:25:06;9.30;78.50
76613;DHT22;65507;48.454;-2.058;2023-04-15T04:27:33;9.30;78.60
76613;DHT22;65507;48.454;-2.058;2023-04-15T04:29:59;9.30;78.60
76613;DHT22;65507;48.454;-2.058;2023-04-15T04:32:25;9.30;78.70
76613;DHT22;65507;48.454;-2.058;2023-04-15T04:34:50;9.30;78.80
76613;DHT22;65507;48.454;-2.058;2023-04-15T04:37:16;9.30;79.00
76613;DHT22;65507;48.454;-2.058;2023-04-15T04:39:42;9.30;79.10
76613;DHT22;65507;48.454;-2.058;2023-04-15T04:42:07;9.30;79.20
76613;DHT22;65507;48.454;-2.058;2023-04-15T04:44:33;9.20;79.20
76613;DHT22;65507;48.454;-2.058;2023-04-15T04:46:59;9.20;79.30
76613;DHT22;65507;48.454;-2.058;2023-04-15T04:49:24;9.20;79.40
76613;DHT22;65507;48.454;-2.058;2023-04-15T04:51:50;9.30;79.50
76613;DHT22;65507;48.454;-2.058;2023-04-15T04:54:16;9.30;79.60
76613;DHT22;65507;48.454;-2.058;2023-04-15T04:56:42;9.30;79.70
76613;DHT22;65507;48.454;-2.058;2023-04-15T04:59:07;9.30;79.70
76613;DHT22;65507;48.454;-2.058;2023-04-15T05:01:34;9.30;79.70
76613;DHT22;65507;48.454;-2.058;2023-04-15T05:04:00;9.30;79.70
76613;DHT22;65507;48.454;-2.058;2023-04-15T05:06:26;9.30;79.70
76613;DHT22;65507;48.454;-2.058;2023-04-15T05:08:52;9.30;79.80
76613;DHT22;65507;48.454;-2.058;2023-04-15T05:11:17;9.30;79.90
76613;DHT22;65507;48.454;-2.058;2023-04-15T05:13:43;9.30;79.90
76613;DHT22;65507;48.454;-2.058;2023-04-15T05:16:09;9.30;80.00
76613;DHT22;65507;48.454;-2.058;2023-04-15T05:18:34;9.30;80.10
76613;DHT22;65507;48.454;-2.058;2023-04-15T05:21:01;9.40;80.20
76613;DHT22;65507;48.454;-2.058;2023-04-15T05:23:27;9.40;80.30
76613;DHT22;65507;48.454;-2.058;2023-04-15T05:25:52;9.30;80.30
76613;DHT22;65507;48.454;-2.058;2023-04-15T05:28:18;9.30;80.30
76613;DHT22;65507;48.454;-2.058;2023-04-15T05:30:44;9.30;80.40
76613;DHT22;65507;48.454;-2.058;2023-04-15T05:33:10;9.30;80.50
76613;DHT22;65507;48.454;-2.058;2023-04-15T05:35:36;9.30;80.60
76613;DHT22;65507;48.454;-2.058;2023-04-15T05:38:02;9.30;80.60
76613;DHT22;65507;48.454;-2.058;2023-04-15T05:40:29;9.30;80.70
76613;DHT22;65507;48.454;-2.058;2023-04-15T05:42:54;9.30;80.70
76613;DHT22;65507;48.454;-2.058;2023-04-15T05:45:20;9.40;80.80
76613;DHT22;65507;48.454;-2.058;2023-04-15T05:47:46;9.40;80.80
76613;DHT22;65507;48.454;-2.058;2023-04-15T05:50:12;9.40;80.80
76613;DHT22;65507;48.454;-2.058;2023-04-15T05:52:38;9.50;80.80
76613;DHT22;65507;48.454;-2.058;2023-04-15T05:55:04;9.50;80.70
76613;DHT22;65507;48.454;-2.058;2023-04-15T05:57:30;9.50;80.60
76613;DHT22;65507;48.454;-2.058;2023-04-15T05:59:56;9.60;80.70
76613;DHT22;65507;48.454;-2.058;2023-04-15T06:02:22;9.60;80.70
76613;DHT22;65507;48.454;-2.058;2023-04-15T06:04:47;9.70;80.60
76613;DHT22;65507;48.454;-2.058;2023-04-15T06:07:13;9.70;80.60
76613;DHT22;65507;48.454;-2.058;2023-04-15T06:09:39;9.80;80.60
76613;DHT22;65507;48.454;-2.058;2023-04-15T06:12:05;9.80;80.60
76613;DHT22;65507;48.454;-2.058;2023-04-15T06:14:39;9.80;80.60
76613;DHT22;65507;48.454;-2.058;2023-04-15T06:17:05;9.90;80.60
76613;DHT22;65507;48.454;-2.058;2023-04-15T06:19:31;9.90;80.60
76613;DHT22;65507;48.454;-2.058;2023-04-15T06:21:57;10.00;80.70
76613;DHT22;65507;48.454;-2.058;2023-04-15T06:24:23;10.10;80.60
76613;DHT22;65507;48.454;-2.058;2023-04-15T06:26:49;10.10;80.50
76613;DHT22;65507;48.454;-2.058;2023-04-15T06:29:14;10.20;80.40
76613;DHT22;65507;48.454;-2.058;2023-04-15T06:31:40;10.30;80.30
76613;DHT22;65507;48.454;-2.058;2023-04-15T06:34:06;10.30;80.30
76613;DHT22;65507;48.454;-2.058;2023-04-15T06:36:32;11.20;80.80
76613;DHT22;65507;48.454;-2.058;2023-04-15T06:38:58;10.30;80.40
76613;DHT22;65507;48.454;-2.058;2023-04-15T06:41:24;10.30;80.50
76613;DHT22;65507;48.454;-2.058;2023-04-15T06:43:50;10.30;80.50
76613;DHT22;65507;48.454;-2.058;2023-04-15T06:46:15;10.40;80.70
76613;DHT22;65507;48.454;-2.058;2023-04-15T06:48:41;10.30;80.70
76613;DHT22;65507;48.454;-2.058;2023-04-15T06:51:07;10.30;80.80
76613;DHT22;65507;48.454;-2.058;2023-04-15T06:53:33;10.40;80.70
76613;DHT22;65507;48.454;-2.058;2023-04-15T06:55:59;10.40;80.70
76613;DHT22;65507;48.454;-2.058;2023-04-15T06:58:25;10.50;80.70
76613;DHT22;65507;48.454;-2.058;2023-04-15T07:00:52;10.50;80.60
76613;DHT22;65507;48.454;-2.058;2023-04-15T07:03:17;10.60;80.60
76613;DHT22;65507;48.454;-2.058;2023-04-15T07:05:43;10.70;80.50
76613;DHT22;65507;48.454;-2.058;2023-04-15T07:08:09;10.70;80.40
76613;DHT22;65507;48.454;-2.058;2023-04-15T07:10:35;10.80;80.40
76613;DHT22;65507;48.454;-2.058;2023-04-15T07:13:00;10.90;80.20
76613;DHT22;65507;48.454;-2.058;2023-04-15T07:15:27;11.00;80.00
76613;DHT22;65507;48.454;-2.058;2023-04-15T07:17:53;11.10;79.80
76613;DHT22;65507;48.454;-2.058;2023-04-15T07:20:18;11.20;79.70
76613;DHT22;65507;48.454;-2.058;2023-04-15T07:22:44;11.20;79.40
76613;DHT22;65507;48.454;-2.058;2023-04-15T07:25:10;11.30;79.10
76613;DHT22;65507;48.454;-2.058;2023-04-15T07:27:36;11.40;79.20
76613;DHT22;65507;48.454;-2.058;2023-04-15T07:30:01;11.50;79.00
76613;DHT22;65507;48.454;-2.058;2023-04-15T07:32:27;11.60;78.80
76613;DHT22;65507;48.454;-2.058;2023-04-15T07:34:53;11.60;78.50
76613;DHT22;65507;48.454;-2.058;2023-04-15T07:37:18;11.70;78.40
76613;DHT22;65507;48.454;-2.058;2023-04-15T07:39:44;11.70;78.20
76613;DHT22;65507;48.454;-2.058;2023-04-15T07:42:10;11.70;78.00
76613;DHT22;65507;48.454;-2.058;2023-04-15T07:44:36;11.80;78.00
76613;DHT22;65507;48.454;-2.058;2023-04-15T07:47:02;11.80;77.80
76613;DHT22;65507;48.454;-2.058;2023-04-15T07:49:28;11.90;77.60
76613;DHT22;65507;48.454;-2.058;2023-04-15T07:51:54;12.00;77.40
76613;DHT22;65507;48.454;-2.058;2023-04-15T07:54:21;12.10;77.10
76613;DHT22;65507;48.454;-2.058;2023-04-15T07:56:47;12.20;76.50
76613;DHT22;65507;48.454;-2.058;2023-04-15T07:59:14;12.30;76.40
76613;DHT22;65507;48.454;-2.058;2023-04-15T08:01:42;12.40;76.30
76613;DHT22;65507;48.454;-2.058;2023-04-15T08:04:08;12.40;76.00
76613;DHT22;65507;48.454;-2.058;2023-04-15T08:06:34;12.30;75.70
76613;DHT22;65507;48.454;-2.058;2023-04-15T08:09:01;12.60;75.80
76613;DHT22;65507;48.454;-2.058;2023-04-15T08:11:27;12.60;75.40
76613;DHT22;65507;48.454;-2.058;2023-04-15T08:13:52;12.70;75.40
76613;DHT22;65507;48.454;-2.058;2023-04-15T08:16:25;12.70;75.10
76613;DHT22;65507;48.454;-2.058;2023-04-15T08:18:54;12.80;74.90
76613;DHT22;65507;48.454;-2.058;2023-04-15T08:21:21;12.90;74.90
76613;DHT22;65507;48.454;-2.058;2023-04-15T08:23:48;13.00;74.20
76613;DHT22;65507;48.454;-2.058;2023-04-15T08:26:15;13.00;74.00
76613;DHT22;65507;48.454;-2.058;2023-04-15T08:28:42;13.00;73.90
76613;DHT22;65507;48.454;-2.058;2023-04-15T08:31:08;13.00;73.80
76613;DHT22;65507;48.454;-2.058;2023-04-15T08:33:34;13.10;73.60
76613;DHT22;65507;48.454;-2.058;2023-04-15T08:36:00;13.10;73.20
76613;DHT22;65507;48.454;-2.058;2023-04-15T08:38:26;12.90;73.10
76613;DHT22;65507;48.454;-2.058;2023-04-15T08:40:52;12.80;73.20
76613;DHT22;65507;48.454;-2.058;2023-04-15T08:43:22;12.70;73.20
76613;DHT22;65507;48.454;-2.058;2023-04-15T08:45:53;12.60;73.00
76613;DHT22;65507;48.454;-2.058;2023-04-15T08:48:20;12.60;73.10
76613;DHT22;65507;48.454;-2.058;2023-04-15T08:50:46;12.50;72.80
76613;DHT22;65507;48.454;-2.058;2023-04-15T08:53:13;12.40;72.80
76613;DHT22;65507;48.454;-2.058;2023-04-15T08:55:42;12.30;72.50
76613;DHT22;65507;48.454;-2.058;2023-04-15T08:58:13;12.20;72.70
76613;DHT22;65507;48.454;-2.058;2023-04-15T09:00:39;12.30;72.40
76613;DHT22;65507;48.454;-2.058;2023-04-15T09:03:07;12.30;72.00
76613;DHT22;65507;48.454;-2.058;2023-04-15T09:05:34;12.50;71.60
76613;DHT22;65507;48.454;-2.058;2023-04-15T09:08:00;12.60;71.20
76613;DHT22;65507;48.454;-2.058;2023-04-15T09:10:27;12.80;71.10
76613;DHT22;65507;48.454;-2.058;2023-04-15T09:12:54;12.90;70.90
76613;DHT22;65507;48.454;-2.058;2023-04-15T09:15:19;13.00;70.50
76613;DHT22;65507;48.454;-2.058;2023-04-15T09:17:45;12.90;70.40
76613;DHT22;65507;48.454;-2.058;2023-04-15T09:20:13;12.80;70.70
76613;DHT22;65507;48.454;-2.058;2023-04-15T09:22:40;12.90;70.70
76613;DHT22;65507;48.454;-2.058;2023-04-15T09:30:19;13.00;70.30
76613;DHT22;65507;48.454;-2.058;2023-04-15T09:32:53;13.00;70.40
76613;DHT22;65507;48.454;-2.058;2023-04-15T09:35:22;12.90;70.40
76613;DHT22;65507;48.454;-2.058;2023-04-15T09:37:49;12.80;70.30
76613;DHT22;65507;48.454;-2.058;2023-04-15T09:40:30;12.80;70.40
76613;DHT22;65507;48.454;-2.058;2023-04-15T09:42:56;12.80;69.90
76613;DHT22;65507;48.454;-2.058;2023-04-15T09:45:23;12.80;69.40
76613;DHT22;65507;48.454;-2.058;2023-04-15T09:47:48;12.90;69.30
76613;DHT22;65507;48.454;-2.058;2023-04-15T09:50:17;12.90;68.90
76613;DHT22;65507;48.454;-2.058;2023-04-15T09:52:43;13.00;68.80
76613;DHT22;65507;48.454;-2.058;2023-04-15T09:55:10;13.10;68.70
76613;DHT22;65507;48.454;-2.058;2023-04-15T09:57:37;13.20;68.60
76613;DHT22;65507;48.454;-2.058;2023-04-15T10:00:04;13.30;68.70
76613;DHT22;65507;48.454;-2.058;2023-04-15T10:02:31;13.30;68.60
76613;DHT22;65507;48.454;-2.058;2023-04-15T10:04:56;13.40;69.60
76613;DHT22;65507;48.454;-2.058;2023-04-15T10:07:22;13.40;68.10
76613;DHT22;65507;48.454;-2.058;2023-04-15T10:09:50;13.40;68.10
76613;DHT22;65507;48.454;-2.058;2023-04-15T10:12:16;13.50;68.00
76613;DHT22;65507;48.454;-2.058;2023-04-15T10:14:43;13.50;68.10
76613;DHT22;65507;48.454;-2.058;2023-04-15T10:17:10;13.50;68.10
76613;DHT22;65507;48.454;-2.058;2023-04-15T10:19:39;13.50;68.10
76613;DHT22;65507;48.454;-2.058;2023-04-15T10:22:06;13.50;67.70
76613;DHT22;65507;48.454;-2.058;2023-04-15T10:24:32;13.50;67.60
76613;DHT22;65507;48.454;-2.058;2023-04-15T10:26:59;13.60;67.30
76613;DHT22;65507;48.454;-2.058;2023-04-15T10:29:25;13.60;67.20
76613;DHT22;65507;48.454;-2.058;2023-04-15T10:31:54;13.50;66.90
76613;DHT22;65507;48.454;-2.058;2023-04-15T10:34:21;13.50;66.70
76613;DHT22;65507;48.454;-2.058;2023-04-15T10:36:48;13.50;66.80
76613;DHT22;65507;48.454;-2.058;2023-04-15T10:44:38;13.70;66.70
76613;DHT22;65507;48.454;-2.058;2023-04-15T10:47:11;13.70;66.80
76613;DHT22;65507;48.454;-2.058;2023-04-15T10:49:51;13.70;66.70
76613;DHT22;65507;48.454;-2.058;2023-04-15T10:52:27;13.60;66.70
76613;DHT22;65507;48.454;-2.058;2023-04-15T10:55:26;13.60;66.70
76613;DHT22;65507;48.454;-2.058;2023-04-15T10:57:58;13.60;66.60
76613;DHT22;65507;48.454;-2.058;2023-04-15T11:00:31;13.60;66.80
76613;DHT22;65507;48.454;-2.058;2023-04-15T11:08:10;13.90;66.00
76613;DHT22;65507;48.454;-2.058;2023-04-15T11:13:04;13.80;66.10
76613;DHT22;65507;48.454;-2.058;2023-04-15T11:15:31;13.80;66.40
76613;DHT22;65507;48.454;-2.058;2023-04-15T11:17:59;13.90;66.30
76613;DHT22;65507;48.454;-2.058;2023-04-15T11:20:33;13.80;66.20
76613;DHT22;65507;48.454;-2.058;2023-04-15T11:22:58;13.90;66.30
76613;DHT22;65507;48.454;-2.058;2023-04-15T11:25:26;14.00;65.90
76613;DHT22;65507;48.454;-2.058;2023-04-15T11:27:53;14.10;65.80
76613;DHT22;65507;48.454;-2.058;2023-04-15T11:30:22;14.10;65.60
76613;DHT22;65507;48.454;-2.058;2023-04-15T11:32:52;14.00;65.70
76613;DHT22;65507;48.454;-2.058;2023-04-15T11:35:18;14.00;65.90
76613;DHT22;65507;48.454;-2.058;2023-04-15T11:37:45;14.00;65.70
76613;DHT22;65507;48.454;-2.058;2023-04-15T11:40:11;13.90;65.60
76613;DHT22;65507;48.454;-2.058;2023-04-15T11:42:38;14.00;65.80
76613;DHT22;65507;48.454;-2.058;2023-04-15T11:45:12;13.90;65.60
76613;DHT22;65507;48.454;-2.058;2023-04-15T11:47:39;13.90;65.80
76613;DHT22;65507;48.454;-2.058;2023-04-15T11:50:21;13.90;66.00
76613;DHT22;65507;48.454;-2.058;2023-04-15T11:55:19;14.10;65.50
76613;DHT22;65507;48.454;-2.058;2023-04-15T11:57:45;14.10;65.50
76613;DHT22;65507;48.454;-2.058;2023-04-15T12:00:12;14.20;65.30
76613;DHT22;65507;48.454;-2.058;2023-04-15T12:02:38;14.30;66.10
76613;DHT22;65507;48.454;-2.058;2023-04-15T12:05:05;14.20;65.10
76613;DHT22;65507;48.454;-2.058;2023-04-15T12:07:31;14.10;65.30
76613;DHT22;65507;48.454;-2.058;2023-04-15T12:09:57;14.10;65.30
76613;DHT22;65507;48.454;-2.058;2023-04-15T12:12:29;14.10;64.90
76613;DHT22;65507;48.454;-2.058;2023-04-15T12:14:58;14.00;64.70
76613;DHT22;65507;48.454;-2.058;2023-04-15T12:17:24;14.00;64.70
76613;DHT22;65507;48.454;-2.058;2023-04-15T12:19:55;14.00;64.70
76613;DHT22;65507;48.454;-2.058;2023-04-15T12:22:21;14.10;64.70
76613;DHT22;65507;48.454;-2.058;2023-04-15T12:24:53;14.20;64.60
76613;DHT22;65507;48.454;-2.058;2023-04-15T12:27:20;14.30;64.40
76613;DHT22;65507;48.454;-2.058;2023-04-15T12:29:46;14.30;64.10
76613;DHT22;65507;48.454;-2.058;2023-04-15T12:32:13;14.30;64.20
76613;DHT22;65507;48.454;-2.058;2023-04-15T12:34:40;14.30;63.90
76613;DHT22;65507;48.454;-2.058;2023-04-15T12:37:10;14.30;64.00
76613;DHT22;65507;48.454;-2.058;2023-04-15T12:39:41;14.20;63.90
76613;DHT22;65507;48.454;-2.058;2023-04-15T12:42:07;14.30;64.10
76613;DHT22;65507;48.454;-2.058;2023-04-15T12:44:34;14.30;63.80
76613;DHT22;65507;48.454;-2.058;2023-04-15T12:47:00;14.40;63.90
76613;DHT22;65507;48.454;-2.058;2023-04-15T12:49:26;14.50;63.80
76613;DHT22;65507;48.454;-2.058;2023-04-15T12:51:56;14.60;63.50
76613;DHT22;65507;48.454;-2.058;2023-04-15T12:54:24;14.70;63.30
76613;DHT22;65507;48.454;-2.058;2023-04-15T12:56:51;14.80;63.00
76613;DHT22;65507;48.454;-2.058;2023-04-15T12:59:17;14.70;62.80
76613;DHT22;65507;48.454;-2.058;2023-04-15T13:01:44;14.60;63.20
76613;DHT22;65507;48.454;-2.058;2023-04-15T13:04:10;14.60;63.20
76613;DHT22;65507;48.454;-2.058;2023-04-15T13:06:35;14.70;63.30
76613;DHT22;65507;48.454;-2.058;2023-04-15T13:09:02;14.70;62.90
76613;DHT22;65507;48.454;-2.058;2023-04-15T13:11:28;14.70;63.00
76613;DHT22;65507;48.454;-2.058;2023-04-15T13:14:01;14.60;63.10
76613;DHT22;65507;48.454;-2.058;2023-04-15T13:16:27;14.60;63.30
76613;DHT22;65507;48.454;-2.058;2023-04-15T13:18:53;14.60;63.40
76613;DHT22;65507;48.454;-2.058;2023-04-15T13:21:18;14.70;63.10
76613;DHT22;65507;48.454;-2.058;2023-04-15T13:23:44;14.70;62.30
76613;DHT22;65507;48.454;-2.058;2023-04-15T13:26:10;14.70;62.40
76613;DHT22;65507;48.454;-2.058;2023-04-15T13:28:36;14.60;62.50
76613;DHT22;65507;48.454;-2.058;2023-04-15T13:31:04;14.50;62.50
76613;DHT22;65507;48.454;-2.058;2023-04-15T13:33:30;14.50;62.40
76613;DHT22;65507;48.454;-2.058;2023-04-15T13:35:56;14.40;62.40
76613;DHT22;65507;48.454;-2.058;2023-04-15T13:38:23;14.40;62.50
76613;DHT22;65507;48.454;-2.058;2023-04-15T13:40:48;14.40;62.50
76613;DHT22;65507;48.454;-2.058;2023-04-15T13:43:14;14.40;62.50
76613;DHT22;65507;48.454;-2.058;2023-04-15T13:45:39;14.40;62.50
76613;DHT22;65507;48.454;-2.058;2023-04-15T13:48:05;14.50;62.30
76613;DHT22;65507;48.454;-2.058;2023-04-15T13:50:31;14.60;62.10
76613;DHT22;65507;48.454;-2.058;2023-04-15T13:52:56;14.60;61.90
76613;DHT22;65507;48.454;-2.058;2023-04-15T13:55:22;14.50;61.90
76613;DHT22;65507;48.454;-2.058;2023-04-15T13:57:48;14.40;62.00
76613;DHT22;65507;48.454;-2.058;2023-04-15T14:00:15;14.30;62.00
76613;DHT22;65507;48.454;-2.058;2023-04-15T14:02:41;14.30;62.30
76613;DHT22;65507;48.454;-2.058;2023-04-15T14:05:07;14.30;62.40
76613;DHT22;65507;48.454;-2.058;2023-04-15T14:07:33;14.30;62.70
76613;DHT22;65507;48.454;-2.058;2023-04-15T14:09:59;14.30;62.20
76613;DHT22;65507;48.454;-2.058;2023-04-15T14:12:25;13.60;61.70
76613;DHT22;65507;48.454;-2.058;2023-04-15T14:14:51;14.30;62.10
76613;DHT22;65507;48.454;-2.058;2023-04-15T14:17:16;14.30;62.00
76613;DHT22;65507;48.454;-2.058;2023-04-15T14:19:42;14.20;61.80
76613;DHT22;65507;48.454;-2.058;2023-04-15T14:22:08;14.20;62.00
76613;DHT22;65507;48.454;-2.058;2023-04-15T14:24:33;14.30;62.10
76613;DHT22;65507;48.454;-2.058;2023-04-15T14:26:59;14.30;62.00
76613;DHT22;65507;48.454;-2.058;2023-04-15T14:29:26;14.40;61.50
76613;DHT22;65507;48.454;-2.058;2023-04-15T14:31:52;14.20;61.40
76613;DHT22;65507;48.454;-2.058;2023-04-15T14:34:18;14.20;61.40
76613;DHT22;65507;48.454;-2.058;2023-04-15T14:36:44;14.20;61.40
76613;DHT22;65507;48.454;-2.058;2023-04-15T14:39:10;14.40;61.40
76613;DHT22;65507;48.454;-2.058;2023-04-15T14:41:36;14.50;61.30
76613;DHT22;65507;48.454;-2.058;2023-04-15T14:44:02;14.50;61.00
76613;DHT22;65507;48.454;-2.058;2023-04-15T14:46:28;14.50;60.90
76613;DHT22;65507;48.454;-2.058;2023-04-15T14:48:53;14.40;60.90
76613;DHT22;65507;48.454;-2.058;2023-04-15T14:51:19;14.50;61.00
76613;DHT22;65507;48.454;-2.058;2023-04-15T14:53:45;14.50;60.80
76613;DHT22;65507;48.454;-2.058;2023-04-15T14:56:11;14.50;60.50
76613;DHT22;65507;48.454;-2.058;2023-04-15T14:58:36;14.50;60.40
76613;DHT22;65507;48.454;-2.058;2023-04-15T15:01:03;14.40;60.60
76613;DHT22;65507;48.454;-2.058;2023-04-15T15:03:29;14.40;60.70
76613;DHT22;65507;48.454;-2.058;2023-04-15T15:05:55;14.50;60.60
76613;DHT22;65507;48.454;-2.058;2023-04-15T15:08:22;14.40;60.20
76613;DHT22;65507;48.454;-2.058;2023-04-15T15:10:48;14.40;60.30
76613;DHT22;65507;48.454;-2.058;2023-04-15T15:13:13;14.40;60.20
76613;DHT22;65507;48.454;-2.058;2023-04-15T15:15:39;14.40;60.00
76613;DHT22;65507;48.454;-2.058;2023-04-15T15:18:05;14.50;59.90
76613;DHT22;65507;48.454;-2.058;2023-04-15T15:20:31;14.50;59.60
76613;DHT22;65507;48.454;-2.058;2023-04-15T15:22:57;14.50;59.50
76613;DHT22;65507;48.454;-2.058;2023-04-15T15:25:23;14.50;59.60
76613;DHT22;65507;48.454;-2.058;2023-04-15T15:27:49;14.50;59.30
76613;DHT22;65507;48.454;-2.058;2023-04-15T15:30:15;14.40;59.10
76613;DHT22;65507;48.454;-2.058;2023-04-15T15:32:41;14.30;59.20
76613;DHT22;65507;48.454;-2.058;2023-04-15T15:35:08;14.30;59.10
76613;DHT22;65507;48.454;-2.058;2023-04-15T15:37:34;14.20;59.00
76613;DHT22;65507;48.454;-2.058;2023-04-15T15:40:02;14.20;58.80